createdAt,value
2019-03-11T00:00:53.188Z,42.72
2019-03-11T00:03:23.443Z,42.32
2019-03-11T00:05:53.257Z,42.09
2019-03-11T00:08:23.025Z,42.50
2019-03-11T00:10:52.871Z,42.07
2019-03-11T00:13:22.651Z,42.47
2019-03-11T00:15:52.390Z,42.72
2019-03-11T00:18:22.251Z,42.45
2019-03-11T00:20:51.995Z,42.10
2019-03-11T00:23:21.766Z,41.74
2019-03-11T00:25:51.646Z,41.70
2019-03-11T00:28:21.448Z,42.11
2019-03-11T00:30:51.188Z,42.43
2019-03-11T00:33:23.648Z,42.01
2019-03-11T00:35:56.961Z,42.01
2019-03-11T00:38:26.869Z,41.23
2019-03-11T00:40:56.743Z,41.78
2019-03-11T00:43:26.568Z,41.71
2019-03-11T00:45:56.293Z,41.75
2019-03-11T00:48:26.066Z,41.45
2019-03-11T00:50:55.889Z,39.07
2019-03-11T00:53:27.750Z,39.07
2019-03-11T00:55:57.510Z,37.33
2019-03-11T00:58:29.237Z,36.71
2019-03-11T01:00:59.387Z,36.62
2019-03-11T01:03:29.331Z,36.24
2019-03-11T01:06:01.656Z,36.33
2019-03-11T01:08:31.499Z,37.49
2019-03-11T01:11:02.229Z,38.53
2019-03-11T01:13:32.155Z,38.65
2019-03-11T01:16:01.967Z,37.04
2019-03-11T01:18:31.772Z,37.45
2019-03-11T01:21:01.568Z,38.47
2019-03-11T01:23:31.348Z,39.03
2019-03-11T01:26:01.129Z,38.59
2019-03-11T01:28:30.958Z,38.25
2019-03-11T01:31:01.563Z,37.38
2019-03-11T01:33:33.344Z,36.40
2019-03-11T01:36:04.738Z,36.27
2019-03-11T01:38:34.604Z,36.31
2019-03-11T01:41:04.430Z,36.44
2019-03-11T01:43:34.268Z,35.81
2019-03-11T01:46:04.026Z,34.21
2019-03-11T01:48:33.792Z,34.18
2019-03-11T01:51:03.524Z,35.17
2019-03-11T01:53:33.289Z,35.58
2019-03-11T01:56:03.063Z,35.64
2019-03-11T01:58:32.866Z,35.77
2019-03-11T02:01:02.676Z,35.88
2019-03-11T02:03:32.438Z,35.75
2019-03-11T02:06:02.234Z,36.01
2019-03-11T02:08:31.910Z,36.54
2019-03-11T02:11:01.610Z,37.06
2019-03-11T02:13:31.428Z,37.25
2019-03-11T02:16:01.229Z,37.34
2019-03-11T02:18:31.026Z,37.44
2019-03-11T02:21:01.136Z,37.99
2019-03-11T02:23:30.943Z,37.67
2019-03-11T02:26:00.854Z,37.75
2019-03-11T02:28:30.631Z,38.01
2019-03-11T02:31:00.460Z,38.69
2019-03-11T02:33:31.271Z,39.22
2019-03-11T02:36:01.025Z,38.82
2019-03-11T02:38:30.828Z,39.13
2019-03-11T02:41:00.625Z,39.06
2019-03-11T02:43:30.376Z,39.50
2019-03-11T02:46:00.209Z,40.11
2019-03-11T02:48:29.982Z,40.07
2019-03-11T02:50:59.786Z,40.21
2019-03-11T02:53:31.215Z,40.86
2019-03-11T02:56:01.028Z,40.33
2019-03-11T02:58:31.744Z,39.90
2019-03-11T03:01:18.153Z,40.43
2019-03-11T03:03:58.514Z,40.00
2019-03-11T03:06:29.207Z,39.39
2019-03-11T03:08:59.010Z,39.14
2019-03-11T03:11:29.258Z,39.18
2019-03-11T03:13:59.031Z,39.57
2019-03-11T03:16:28.807Z,39.59
2019-03-11T03:18:58.603Z,38.68
2019-03-11T03:21:28.298Z,39.05
2019-03-11T03:23:58.057Z,39.63
2019-03-11T03:26:27.884Z,39.92
2019-03-11T03:28:57.710Z,40.51
2019-03-11T03:31:27.475Z,40.75
2019-03-11T03:34:00.605Z,40.62
2019-03-11T03:36:30.375Z,40.14
2019-03-11T03:39:00.155Z,39.95
2019-03-11T03:41:29.952Z,41.08
2019-03-11T03:43:59.689Z,40.60
2019-03-11T03:46:29.674Z,40.33
2019-03-11T03:49:00.054Z,40.55
2019-03-11T03:51:29.992Z,39.70
2019-03-11T03:53:59.829Z,40.39
2019-03-11T03:56:30.582Z,40.94
2019-03-11T03:59:03.264Z,40.35
2019-03-11T04:01:33.008Z,40.34
2019-03-11T04:04:02.842Z,39.71
2019-03-11T04:06:32.677Z,39.89
2019-03-11T04:09:02.499Z,39.72
2019-03-11T04:11:32.252Z,40.44
2019-03-11T04:14:02.094Z,39.48
2019-03-11T04:16:31.974Z,39.62
2019-03-11T04:19:01.805Z,39.32
2019-03-11T04:21:32.682Z,38.31
2019-03-11T04:24:02.489Z,38.53
2019-03-11T04:26:32.262Z,39.20
2019-03-11T04:29:02.032Z,38.64
2019-03-11T04:31:31.884Z,38.41
2019-03-11T04:34:01.717Z,38.69
2019-03-11T04:36:31.485Z,38.73
2019-03-11T04:39:01.449Z,38.81
2019-03-11T04:41:31.195Z,39.04
2019-03-11T04:44:00.976Z,38.68
2019-03-11T04:46:30.768Z,38.61
2019-03-11T04:49:02.981Z,38.95
2019-03-11T04:51:33.711Z,39.91
2019-03-11T04:54:03.458Z,40.36
2019-03-11T04:56:33.203Z,40.46
2019-03-11T04:59:15.052Z,40.57
2019-03-11T05:01:44.833Z,40.71
2019-03-11T05:04:15.026Z,39.71
2019-03-11T05:06:44.942Z,38.39
2019-03-11T05:09:17.503Z,39.12
2019-03-11T05:11:48.947Z,37.83
2019-03-11T05:14:19.126Z,37.44
2019-03-11T05:16:50.680Z,37.23
2019-03-11T05:19:21.770Z,37.39
2019-03-11T05:21:52.696Z,37.15
2019-03-11T05:24:22.897Z,37.83
2019-03-11T05:26:52.764Z,38.57
2019-03-11T05:29:23.023Z,38.29
2019-03-11T05:31:55.234Z,38.21
2019-03-11T05:34:25.556Z,38.11
2019-03-11T05:36:55.328Z,37.62
2019-03-11T05:39:25.531Z,36.77
2019-03-11T05:41:55.339Z,36.73
2019-03-11T05:44:26.506Z,35.40
2019-03-11T05:46:57.878Z,34.74
2019-03-11T05:49:29.095Z,34.21
2019-03-11T05:51:58.975Z,42.60
2019-03-11T05:54:29.721Z,40.33
2019-03-11T05:57:01.138Z,37.10
2019-03-11T05:59:31.294Z,32.26
2019-03-11T06:02:01.603Z,30.64
2019-03-11T06:04:31.429Z,29.91
2019-03-11T06:07:01.206Z,28.74
2019-03-11T06:09:31.343Z,28.99
2019-03-11T06:12:01.491Z,28.71
2019-03-11T06:14:31.265Z,28.42
2019-03-11T06:17:01.028Z,27.99
2019-03-11T06:19:31.299Z,27.75
2019-03-11T06:22:03.143Z,27.02
2019-03-11T06:24:32.895Z,27.05
2019-03-11T06:27:03.048Z,26.41
2019-03-11T06:29:32.734Z,26.55
2019-03-11T06:32:02.577Z,27.38
2019-03-11T06:34:32.894Z,27.45
2019-03-11T06:37:02.673Z,27.37
2019-03-11T06:39:32.426Z,27.54
2019-03-11T06:42:02.885Z,26.69
2019-03-11T06:44:32.932Z,27.31
2019-03-11T06:47:03.013Z,27.02
2019-03-11T06:49:32.784Z,27.55
2019-03-11T06:52:03.720Z,27.44
2019-03-11T06:54:33.510Z,28.10
2019-03-11T06:57:03.269Z,27.57
2019-03-11T06:59:33.109Z,27.21
2019-03-11T07:02:04.481Z,26.81
2019-03-11T07:04:36.774Z,27.90
2019-03-11T07:07:06.553Z,26.29
2019-03-11T07:09:36.359Z,26.44
2019-03-11T07:12:06.212Z,25.92
2019-03-11T07:14:36.290Z,25.32
2019-03-11T07:17:06.434Z,25.14
2019-03-11T07:19:37.716Z,24.61
2019-03-11T07:22:07.561Z,24.15
2019-03-11T07:24:38.908Z,24.08
2019-03-11T07:27:09.962Z,23.77
2019-03-11T07:29:39.528Z,23.47
2019-03-11T07:32:09.449Z,22.89
2019-03-11T07:34:39.408Z,23.34
2019-03-11T07:37:09.573Z,23.44
2019-03-11T07:39:40.859Z,23.14
2019-03-11T07:42:11.440Z,22.85
2019-03-11T07:44:41.094Z,23.06
2019-03-11T07:47:11.893Z,23.51
2019-03-11T07:49:42.277Z,23.63
2019-03-11T07:52:13.269Z,24.17
2019-03-11T07:54:46.733Z,24.36
2019-03-11T07:57:16.928Z,23.28
2019-03-11T07:59:48.394Z,23.27
2019-03-11T08:02:18.695Z,23.28
2019-03-11T08:04:49.812Z,22.70
2019-03-11T08:07:20.430Z,22.08
2019-03-11T08:09:51.294Z,21.87
2019-03-11T08:12:20.947Z,21.28
2019-03-11T08:14:51.618Z,22.20
2019-03-11T08:17:23.067Z,21.86
2019-03-11T08:19:53.519Z,22.16
2019-03-11T08:22:23.387Z,21.80
2019-03-11T08:24:53.204Z,20.71
2019-03-11T08:27:22.990Z,20.89
2019-03-11T08:29:53.042Z,20.78
2019-03-11T08:32:24.374Z,21.18
2019-03-11T08:34:56.427Z,20.55
2019-03-11T08:37:28.068Z,20.38
2019-03-11T08:39:58.261Z,20.49
2019-03-11T08:42:29.098Z,19.38
2019-03-11T08:44:59.074Z,18.75
2019-03-11T08:47:30.633Z,18.29
2019-03-11T08:50:02.949Z,19.80
2019-03-11T08:52:34.414Z,19.39
2019-03-11T08:55:06.163Z,18.83
2019-03-11T08:57:40.035Z,18.58
2019-03-11T09:00:16.526Z,19.54
2019-03-11T09:02:47.260Z,18.31
2019-03-11T09:05:17.078Z,18.79
2019-03-11T09:07:46.846Z,18.92
2019-03-11T09:10:19.374Z,18.59
2019-03-11T09:12:49.171Z,18.72
2019-03-11T09:15:22.982Z,18.15
2019-03-11T09:17:52.817Z,18.38
2019-03-11T09:20:23.512Z,18.77
2019-03-11T09:22:53.450Z,19.00
2019-03-11T09:25:25.183Z,18.22
2019-03-11T09:27:54.984Z,18.76
2019-03-11T09:30:25.014Z,19.04
2019-03-11T09:32:54.702Z,18.26
2019-03-11T09:35:26.901Z,18.85
2019-03-11T09:37:56.633Z,18.27
2019-03-11T09:40:26.618Z,18.33
2019-03-11T09:42:56.636Z,17.90
2019-03-11T09:45:26.269Z,17.96
2019-03-11T09:47:56.234Z,18.07
2019-03-11T09:50:26.038Z,17.89
2019-03-11T09:52:55.870Z,17.18
2019-03-11T09:55:31.813Z,17.15
2019-03-11T09:58:04.675Z,17.71
2019-03-11T10:00:35.647Z,17.98
2019-03-11T10:03:05.635Z,17.50
2019-03-11T10:05:36.989Z,18.08
2019-03-11T10:08:07.447Z,17.98
2019-03-11T10:10:38.223Z,18.41
2019-03-11T10:13:09.504Z,18.10
2019-03-11T10:15:39.499Z,18.39
2019-03-11T10:18:10.236Z,18.30
2019-03-11T10:20:40.241Z,18.06
2019-03-11T10:23:11.378Z,18.60
2019-03-11T10:25:41.566Z,18.35
2019-03-11T10:28:12.249Z,18.75
2019-03-11T10:30:44.622Z,18.05
2019-03-11T10:33:16.882Z,17.63
2019-03-11T10:35:48.461Z,17.31
2019-03-11T10:38:19.158Z,17.55
2019-03-11T10:40:51.035Z,17.58
2019-03-11T10:43:21.970Z,18.04
2019-03-11T10:45:52.213Z,18.18
2019-03-11T10:48:22.944Z,18.13
2019-03-11T10:50:54.556Z,17.47
2019-03-11T10:53:26.787Z,18.11
2019-03-11T10:55:57.187Z,18.62
2019-03-11T10:58:29.318Z,18.98
2019-03-11T11:00:59.770Z,18.76
2019-03-11T11:03:29.462Z,18.62
2019-03-11T11:06:00.299Z,18.25
2019-03-11T11:08:32.891Z,19.03
2019-03-11T11:11:03.209Z,18.79
2019-03-11T11:13:34.401Z,18.83
2019-03-11T11:16:04.906Z,17.97
2019-03-11T11:18:36.458Z,17.65
2019-03-11T11:21:06.352Z,17.63
2019-03-11T11:23:36.359Z,17.63
2019-03-11T11:26:07.105Z,17.58
2019-03-11T11:28:36.908Z,17.83
2019-03-11T11:31:06.762Z,17.13
2019-03-11T11:33:36.919Z,16.75
2019-03-11T11:36:06.727Z,17.15
2019-03-11T11:38:36.894Z,17.38
2019-03-11T11:41:07.732Z,17.32
2019-03-11T11:43:37.388Z,16.72
2019-03-11T11:46:07.222Z,17.07
2019-03-11T11:48:38.622Z,17.09
2019-03-11T11:51:08.326Z,16.92
2019-03-11T11:53:38.081Z,16.67
2019-03-11T11:56:08.447Z,16.08
2019-03-11T11:58:40.711Z,17.00
2019-03-11T12:01:09.761Z,17.02
2019-03-11T12:03:39.548Z,16.89
2019-03-11T12:06:09.365Z,15.61
2019-03-11T12:08:40.066Z,15.62
2019-03-11T12:11:09.899Z,15.34
2019-03-11T12:13:39.657Z,15.03
2019-03-11T12:16:09.532Z,15.42
2019-03-11T12:18:39.293Z,16.00
2019-03-11T12:21:12.206Z,15.99
2019-03-11T12:23:46.253Z,15.93
2019-03-11T12:26:13.844Z,16.20
2019-03-11T12:28:43.643Z,17.32
2019-03-11T12:31:13.390Z,20.12
2019-03-11T12:33:43.154Z,23.36
2019-03-11T12:36:13.862Z,23.94
2019-03-11T12:38:43.876Z,24.06
2019-03-11T12:41:13.522Z,23.53
2019-03-11T12:43:43.408Z,24.11
2019-03-11T12:46:13.141Z,24.69
2019-03-11T12:48:42.960Z,25.02
2019-03-11T12:51:12.727Z,25.29
2019-03-11T12:53:46.075Z,25.20
2019-03-11T12:56:15.919Z,25.65
2019-03-11T12:58:46.711Z,26.37
2019-03-11T13:01:16.445Z,27.30
2019-03-11T13:03:46.246Z,27.06
2019-03-11T13:06:16.048Z,28.51
2019-03-11T13:08:45.894Z,28.52
2019-03-11T13:11:15.777Z,28.73
2019-03-11T13:13:45.612Z,29.58
2019-03-11T13:16:15.373Z,29.28
2019-03-11T13:18:45.194Z,28.86
2019-03-11T13:21:20.548Z,28.90
2019-03-11T13:23:50.316Z,29.39
2019-03-11T13:26:20.149Z,29.87
2019-03-11T13:28:49.952Z,29.05
2019-03-11T13:31:19.736Z,29.81
2019-03-11T13:33:49.547Z,29.31
2019-03-11T13:36:20.084Z,30.39
2019-03-11T13:38:49.937Z,31.20
2019-03-11T13:41:19.746Z,31.31
2019-03-11T13:43:49.681Z,31.31
2019-03-11T13:46:19.627Z,30.95
2019-03-11T13:48:49.461Z,30.63
2019-03-11T13:51:19.240Z,30.62
2019-03-11T13:53:48.927Z,30.80
2019-03-11T13:56:19.121Z,30.09
2019-03-11T13:58:48.714Z,32.21
2019-03-11T14:01:21.153Z,28.70
2019-03-11T14:03:50.216Z,29.73
2019-03-11T14:06:20.026Z,29.84
2019-03-11T14:08:50.040Z,29.54
2019-03-11T14:11:19.683Z,29.81
2019-03-11T14:13:50.448Z,30.01
2019-03-11T14:16:20.246Z,30.14
2019-03-11T14:18:50.027Z,30.81
2019-03-11T14:21:25.690Z,31.17
2019-03-11T14:23:51.279Z,31.06
2019-03-11T14:26:21.077Z,30.98
2019-03-11T14:28:50.862Z,31.56
2019-03-11T14:31:20.671Z,30.79
2019-03-11T14:33:50.471Z,30.56
2019-03-11T14:36:20.402Z,31.36
2019-03-11T14:38:50.246Z,31.10
2019-03-11T14:41:20.024Z,32.28
2019-03-11T14:43:49.769Z,31.91
2019-03-11T14:46:19.588Z,30.95
2019-03-11T14:48:49.444Z,31.77
2019-03-11T14:51:19.220Z,32.01
2019-03-11T14:53:49.004Z,32.46
2019-03-11T14:56:18.813Z,32.72
2019-03-11T14:58:48.806Z,33.35
2019-03-11T15:01:18.392Z,33.34
2019-03-11T15:03:48.977Z,33.32
2019-03-11T15:06:18.901Z,32.28
2019-03-11T15:08:48.741Z,33.04
2019-03-11T15:11:20.393Z,32.89
2019-03-11T15:13:50.854Z,33.41
2019-03-11T15:16:20.690Z,33.81
2019-03-11T15:18:50.606Z,33.02
2019-03-11T15:21:21.166Z,32.66
2019-03-11T15:23:51.206Z,32.15
2019-03-11T15:26:25.129Z,34.59
2019-03-11T15:28:52.483Z,35.13
2019-03-11T15:31:22.289Z,32.94
2019-03-11T15:33:52.062Z,32.89
2019-03-11T15:36:32.908Z,32.80
2019-03-11T15:38:53.619Z,34.31
2019-03-11T15:41:23.596Z,35.10
2019-03-11T15:43:54.806Z,35.28
2019-03-11T15:46:24.866Z,34.63
2019-03-11T15:48:57.420Z,34.04
2019-03-11T15:51:36.174Z,34.03
2019-03-11T15:53:58.925Z,34.97
2019-03-11T15:56:28.716Z,34.66
2019-03-11T15:58:58.581Z,35.30
2019-03-11T16:01:28.570Z,36.04
2019-03-11T16:03:58.342Z,34.26
2019-03-11T16:06:28.215Z,33.41
2019-03-11T16:08:58.586Z,33.37
2019-03-11T16:11:28.477Z,34.00
2019-03-11T16:13:59.329Z,34.26
2019-03-11T16:16:29.138Z,33.90
2019-03-11T16:18:58.806Z,33.42
2019-03-11T16:21:28.420Z,33.21
2019-03-11T16:23:58.407Z,33.32
2019-03-11T16:26:28.208Z,34.82
2019-03-11T16:28:58.240Z,34.30
2019-03-11T16:31:28.060Z,34.48
2019-03-11T16:33:57.748Z,34.92
2019-03-11T16:36:28.253Z,34.99
2019-03-11T16:38:58.048Z,35.79
2019-03-11T16:41:27.920Z,35.72
2019-03-11T16:43:57.772Z,35.54
2019-03-11T16:46:27.754Z,36.04
2019-03-11T16:48:58.931Z,35.83
2019-03-11T16:51:30.413Z,36.11
2019-03-11T16:54:00.531Z,34.23
2019-03-11T16:56:30.765Z,33.38
2019-03-11T16:59:00.609Z,33.29
2019-03-11T17:01:30.631Z,34.65
2019-03-11T17:04:00.434Z,35.16
2019-03-11T17:06:30.403Z,35.24
2019-03-11T17:09:00.324Z,39.13
2019-03-11T17:11:30.157Z,41.23
2019-03-11T17:13:59.988Z,35.77
2019-03-11T17:16:29.989Z,34.47
2019-03-11T17:18:59.677Z,35.01
2019-03-11T17:21:29.686Z,35.56
2019-03-11T17:23:59.425Z,35.66
2019-03-11T17:26:29.273Z,36.09
2019-03-11T17:29:00.063Z,36.34
2019-03-11T17:31:29.811Z,36.68
2019-03-11T17:33:59.654Z,36.18
2019-03-11T17:36:30.410Z,35.55
2019-03-11T17:39:00.213Z,34.09
2019-03-11T17:41:30.047Z,34.89
2019-03-11T17:44:00.140Z,34.76
2019-03-11T17:46:29.973Z,35.07
2019-03-11T17:48:59.993Z,35.57
2019-03-11T17:51:30.012Z,36.77
2019-03-11T17:53:59.961Z,38.86
2019-03-11T17:56:29.870Z,39.75
2019-03-11T17:58:59.687Z,37.81
2019-03-11T18:01:29.485Z,37.06
2019-03-11T18:04:00.082Z,36.32
2019-03-11T18:06:29.921Z,37.11
2019-03-11T18:08:59.865Z,37.53
2019-03-11T18:11:29.711Z,37.85
2019-03-11T18:13:59.414Z,36.97
2019-03-11T18:16:29.206Z,37.99
2019-03-11T18:18:59.004Z,37.81
2019-03-11T18:21:29.029Z,36.74
2019-03-11T18:23:59.232Z,36.90
2019-03-11T18:26:29.170Z,38.50
2019-03-11T18:28:59.021Z,38.50
2019-03-11T18:31:29.115Z,38.03
2019-03-11T18:33:58.935Z,37.95
2019-03-11T18:36:29.086Z,37.79
2019-03-11T18:38:59.329Z,37.91
2019-03-11T18:41:29.311Z,38.32
2019-03-11T18:43:59.192Z,38.82
2019-03-11T18:46:29.024Z,39.15
2019-03-11T18:48:58.960Z,38.84
2019-03-11T18:51:28.766Z,40.01
2019-03-11T18:53:58.692Z,39.41
2019-03-11T18:56:28.500Z,40.92
2019-03-11T18:58:59.330Z,40.26
2019-03-11T19:01:29.104Z,40.52
2019-03-11T19:03:59.076Z,41.52
2019-03-11T19:06:28.980Z,42.53
2019-03-11T19:08:59.830Z,41.64
2019-03-11T19:11:30.144Z,39.34
2019-03-11T19:14:00.207Z,39.38
2019-03-11T19:16:30.093Z,38.54
2019-03-11T19:18:59.954Z,39.00
2019-03-11T19:21:29.731Z,38.56
2019-03-11T19:23:59.606Z,38.10
2019-03-11T19:26:30.961Z,37.61
2019-03-11T19:29:00.837Z,38.09
2019-03-11T19:31:30.698Z,37.00
2019-03-11T19:34:00.569Z,37.39
2019-03-11T19:36:30.378Z,38.29
2019-03-11T19:39:00.211Z,38.80
2019-03-11T19:41:30.266Z,39.06
2019-03-11T19:44:00.068Z,38.87
2019-03-11T19:46:29.937Z,39.17
2019-03-11T19:48:59.953Z,39.19
2019-03-11T19:51:29.686Z,38.56
2019-03-11T19:53:59.572Z,38.71
2019-03-11T19:56:29.832Z,39.05
2019-03-11T19:58:59.883Z,39.25
2019-03-11T20:01:30.157Z,39.35
2019-03-11T20:03:59.837Z,39.77
2019-03-11T20:06:29.833Z,39.61
2019-03-11T20:08:59.751Z,40.56
2019-03-11T20:11:29.572Z,40.33
2019-03-11T20:13:59.420Z,39.10
2019-03-11T20:16:29.933Z,39.04
2019-03-11T20:18:59.878Z,42.04
2019-03-11T20:21:29.814Z,40.35
2019-03-11T20:23:59.615Z,40.08
2019-03-11T20:26:31.043Z,40.44
2019-03-11T20:29:00.908Z,40.40
2019-03-11T20:31:30.757Z,41.58
2019-03-11T20:34:00.843Z,40.60
2019-03-11T20:36:30.675Z,41.02
2019-03-11T20:39:01.283Z,40.94
2019-03-11T20:41:32.500Z,41.67
2019-03-11T20:44:04.881Z,42.41
2019-03-11T20:46:34.470Z,42.74
2019-03-11T20:49:05.488Z,43.44
2019-03-11T20:51:35.621Z,43.79
2019-03-11T20:54:06.884Z,44.14
2019-03-11T20:56:36.828Z,44.26
2019-03-11T20:59:07.050Z,43.58
2019-03-11T21:01:37.983Z,43.31
2019-03-11T21:04:07.889Z,44.37
2019-03-11T21:06:38.191Z,44.45
2019-03-11T21:09:08.730Z,45.37
2019-03-11T21:11:39.200Z,45.86
2019-03-11T21:14:09.288Z,45.61
2019-03-11T21:16:39.497Z,45.56
2019-03-11T21:19:09.527Z,45.03
2019-03-11T21:21:40.057Z,44.84
2019-03-11T21:24:09.970Z,45.13
2019-03-11T21:26:39.923Z,46.38
2019-03-11T21:29:10.061Z,47.64
2019-03-11T21:31:39.952Z,47.31
2019-03-11T21:34:11.497Z,46.93
2019-03-11T21:36:41.475Z,46.86
2019-03-11T21:39:11.572Z,47.34
2019-03-11T21:41:41.463Z,47.34
2019-03-11T21:44:11.293Z,46.79
2019-03-11T21:46:41.107Z,46.90
2019-03-11T21:49:10.999Z,46.68
2019-03-11T21:51:41.551Z,48.43
2019-03-11T21:54:11.404Z,47.45
2019-03-11T21:56:43.256Z,47.82
2019-03-11T21:59:13.395Z,48.10
2019-03-11T22:01:45.361Z,47.92
2019-03-11T22:04:15.158Z,48.09
2019-03-11T22:06:44.936Z,47.98
2019-03-11T22:09:14.815Z,47.99
2019-03-11T22:11:44.709Z,48.23
2019-03-11T22:14:14.539Z,48.49
2019-03-11T22:16:44.526Z,48.87
2019-03-11T22:19:14.378Z,49.02
2019-03-11T22:21:44.451Z,49.22
2019-03-11T22:24:14.289Z,50.25
2019-03-11T22:26:44.898Z,50.53
2019-03-11T22:29:15.576Z,50.34
2019-03-11T22:31:45.427Z,50.82
2019-03-11T22:34:15.165Z,50.35
2019-03-11T22:36:44.926Z,50.16
2019-03-11T22:39:14.757Z,50.17
2019-03-11T22:41:44.519Z,50.34
2019-03-11T22:44:14.291Z,50.88
2019-03-11T22:46:44.091Z,50.87
2019-03-11T22:49:13.923Z,51.36
2019-03-11T22:51:44.007Z,51.18
2019-03-11T22:54:13.857Z,50.99
2019-03-11T22:56:43.672Z,51.20
2019-03-11T22:59:15.033Z,51.23
2019-03-11T23:01:44.951Z,51.07
2019-03-11T23:04:15.723Z,51.14
2019-03-11T23:06:47.848Z,51.96
2019-03-11T23:09:17.681Z,52.12
2019-03-11T23:11:47.428Z,51.99
2019-03-11T23:14:17.247Z,51.76
2019-03-11T23:16:47.169Z,51.64
2019-03-11T23:19:17.011Z,51.81
2019-03-11T23:21:46.772Z,52.52
2019-03-11T23:24:17.377Z,52.23
2019-03-11T23:26:47.217Z,52.97
2019-03-11T23:29:17.018Z,53.18
2019-03-11T23:31:47.612Z,53.27
2019-03-11T23:34:17.392Z,53.19
2019-03-11T23:36:47.736Z,53.46
2019-03-11T23:39:17.732Z,54.42
2019-03-11T23:41:47.472Z,54.37
2019-03-11T23:44:18.866Z,54.65
2019-03-11T23:46:49.047Z,54.88
2019-03-11T23:49:19.815Z,55.49
2019-03-11T23:51:49.414Z,55.70
2019-03-11T23:54:19.203Z,56.21
2019-03-11T23:56:48.863Z,56.26
2019-03-11T23:59:18.641Z,56.59
